Time;durP1;ratioP1;P1;durP2;ratioP2;P2;SDS_P1;SDS_P2;PMS_P1;PMS_P2;Temp;Humidity;BMP_temperature;BMP_pressure;BME280_temperature;BME280_humidity;BME280_pressure;Samples;Min_cycle;Max_cycle;Signal;HPM_P1;HPM_P2
2021/11/23 00:01:23;;;;;;;;;27.75;25.50;;;;;6.24;59.11;102701.47;5054595;28;45244;-81
2021/11/23 00:03:49;;;;;;;;;32.00;23.00;;;;;6.17;59.25;102697.91;5057794;28;45495;-81
2021/11/23 00:06:15;;;;;;;;;33.25;27.50;;;;;6.16;59.34;102704.84;5057442;28;45472;-81
2021/11/23 00:08:41;;;;;;;;;28.50;24.50;;;;;6.11;59.30;102698.66;5042524;28;46586;-81
2021/11/23 00:11:07;;;;;;;;;32.00;25.25;;;;;6.14;59.13;102692.63;5060743;28;45259;-81
2021/11/23 00:13:33;;;;;;;;;28.00;21.25;;;;;6.10;59.50;102688.19;5062668;28;45491;-81
2021/11/23 00:15:58;;;;;;;;;33.75;25.00;;;;;6.11;59.38;102695.16;5062220;28;45436;-81
2021/11/23 00:18:24;;;;;;;;;26.50;23.50;;;;;6.06;59.61;102687.22;5057009;28;45414;-83
2021/11/23 00:20:49;;;;;;;;;34.25;26.75;;;;;6.03;59.65;102690.66;5050759;28;45321;-84
2021/11/23 00:23:15;;;;;;;;;21.75;21.25;;;;;6.01;59.29;102688.88;5062281;28;45516;-83
2021/11/23 00:25:42;;;;;;;;;25.00;23.50;;;;;6.01;59.74;102684.53;5062281;28;45547;-83
2021/11/23 00:28:08;;;;;;;;;27.25;19.75;;;;;6.06;59.57;102693.31;5061939;28;46580;-83
2021/11/23 00:30:35;;;;;;;;;22.00;19.75;;;;;6.06;59.61;102697.66;5044485;28;45204;-83
2021/11/23 00:33:01;;;;;;;;;26.50;22.75;;;;;6.06;59.35;102690.72;5056944;28;45465;-86
2021/11/23 00:35:27;;;;;;;;;24.25;20.50;;;;;6.04;59.68;102683.72;5049577;28;47129;-86
2021/11/23 00:37:53;;;;;;;;;30.50;24.25;;;;;6.03;59.62;102679.31;5048182;28;46542;-87
2021/11/23 00:40:20;;;;;;;;;27.00;25.00;;;;;6.06;59.55;102680.28;5062269;28;45248;-84
2021/11/23 00:42:47;;;;;;;;;28.25;24.50;;;;;6.12;59.54;102690.00;5076951;28;45421;-84
2021/11/23 00:45:12;;;;;;;;;20.50;20.00;;;;;6.12;59.81;102689.09;5046528;28;45216;-84
2021/11/23 00:47:38;;;;;;;;;33.00;25.75;;;;;6.12;59.45;102689.09;5056090;28;46272;-84
2021/11/23 00:50:07;;;;;;;;;23.75;20.25;;;;;6.11;59.58;102687.31;5061130;28;45815;-84
2021/11/23 00:52:33;;;;;;;;;23.75;20.75;;;;;6.10;59.89;102693.41;5060664;28;45460;-84
2021/11/23 00:54:58;;;;;;;;;25.75;22.75;;;;;6.08;59.30;102691.66;5059339;28;45434;-83
2021/11/23 00:57:23;;;;;;;;;21.50;21.25;;;;;6.04;60.00;102681.97;5051000;28;45488;-83
2021/11/23 00:59:49;;;;;;;;;26.75;24.50;;;;;6.03;59.48;102685.44;5061908;28;45404;-83
2021/11/23 01:02:14;;;;;;;;;27.50;20.00;;;;;5.99;59.27;102678.41;5062282;28;45446;-83
2021/11/23 01:04:39;;;;;;;;;31.25;23.50;;;;;5.97;59.79;102680.13;5061615;28;45378;-83
2021/11/23 01:07:05;;;;;;;;;26.75;24.00;;;;;5.96;59.53;102683.56;5051413;28;45425;-83
2021/11/23 01:09:31;;;;;;;;;24.00;23.75;;;;;6.00;59.56;102705.41;5046333;28;45445;-83
2021/11/23 01:11:56;;;;;;;;;29.00;24.00;;;;;6.00;59.45;102689.72;5061730;28;45177;-83
2021/11/23 01:14:22;;;;;;;;;27.75;20.75;;;;;5.96;59.82;102696.63;5060173;28;46398;-83
2021/11/23 01:16:48;;;;;;;;;25.00;23.25;;;;;5.97;59.89;102693.16;5057460;28;45220;-82
2021/11/23 01:19:17;;;;;;;;;28.00;24.50;;;;;5.94;59.40;102691.38;5055819;28;45832;-82
2021/11/23 01:21:43;;;;;;;;;26.00;20.50;;;;;5.89;60.06;102685.19;5054162;28;45239;-82
2021/11/23 01:24:10;;;;;;;;;33.00;25.75;;;;;5.89;59.73;102689.53;5061391;28;45372;-82
2021/11/23 01:26:35;;;;;;;;;26.00;21.50;;;;;5.82;59.34;102683.31;5060203;28;45300;-84
2021/11/23 01:29:02;;;;;;;;;24.00;23.75;;;;;5.81;59.72;102685.03;5055494;28;45268;-82
2021/11/23 01:31:27;;;;;;;;;26.25;23.00;;;;;5.79;59.87;102688.47;5051270;28;45544;-82
2021/11/23 01:33:52;;;;;;;;;28.00;26.25;;;;;5.78;59.60;102684.13;5061198;28;45278;-82
2021/11/23 01:36:18;;;;;;;;;25.50;23.50;;;;;5.79;59.60;102689.38;5056239;28;46398;-81
2021/11/23 01:38:44;;;;;;;;;27.75;22.50;;;;;5.76;59.92;102689.28;5061195;28;45278;-81
2021/11/23 01:41:10;;;;;;;;;25.75;23.25;;;;;5.77;59.81;102688.47;5061539;28;45173;-81
2021/11/23 01:43:35;;;;;;;;;25.25;22.25;;;;;5.74;59.86;102693.63;5055711;28;45462;-81
2021/11/23 01:46:01;;;;;;;;;27.00;22.50;;;;;5.70;60.13;102690.09;5044676;28;45428;-81
2021/11/23 01:48:26;;;;;;;;;31.25;25.75;;;;;5.72;59.85;102690.97;5060024;28;45384;-81
2021/11/23 01:50:53;;;;;;;;;25.75;22.25;;;;;5.71;59.96;102683.09;5061073;28;45385;-83
2021/11/23 01:53:18;;;;;;;;;22.50;18.75;;;;;5.73;59.80;102686.63;5060798;28;45522;-83
2021/11/23 01:55:44;;;;;;;;;31.00;25.00;;;;;5.79;59.87;102691.09;5053435;28;46619;-83
2021/11/23 01:58:12;;;;;;;;;28.00;22.00;;;;;5.76;59.82;102689.28;5055117;28;45259;-83
2021/11/23 02:00:38;;;;;;;;;26.50;23.00;;;;;5.78;59.72;102700.63;5061256;28;45310;-83
2021/11/23 02:03:04;;;;;;;;;23.50;20.50;;;;;5.76;59.96;102704.94;5060680;28;45460;-82
2021/11/23 02:05:30;;;;;;;;;25.75;23.25;;;;;5.73;59.99;102691.84;5059323;28;45462;-83
2021/11/23 02:07:55;;;;;;;;;25.25;21.75;;;;;5.73;59.94;102704.88;5052080;28;45485;-84
2021/11/23 02:10:21;;;;;;;;;25.75;22.25;;;;;5.75;59.76;102708.44;5056386;28;45212;-84
2021/11/23 02:12:47;;;;;;;;;22.00;19.50;;;;;5.73;59.75;102704.88;5060785;28;45417;-84
2021/11/23 02:15:13;;;;;;;;;26.50;24.25;;;;;5.70;59.88;102697.91;5044032;28;45434;-85
2021/11/23 02:17:39;;;;;;;;;27.75;26.00;;;;;5.68;59.90;102690.91;5059946;28;45467;-84
2021/11/23 02:20:11;;;;;;;;;26.75;24.50;;;;;5.69;59.67;102700.47;5051479;28;45251;-84
2021/11/23 02:22:36;;;;;;;;;30.00;24.00;;;;;5.70;59.58;102699.63;5057044;28;45444;-87
2021/11/23 02:25:02;;;;;;;;;24.75;21.75;;;;;5.67;59.52;102695.22;5052391;28;45396;-89
2021/11/23 02:27:27;;;;;;;;;25.75;23.50;;;;;5.63;59.87;102691.66;5062089;28;46034;-85
2021/11/23 02:29:53;;;;;;;;;21.75;16.75;;;;;5.61;59.46;102695.97;5060292;28;45369;-90
2021/11/23 02:32:18;;;;;;;;;22.25;21.00;;;;;5.59;59.76;102687.25;5046636;28;45472;-90
2021/11/23 02:34:44;;;;;;;;;28.75;22.00;;;;;5.61;60.12;102697.69;5052533;28;45474;-85
2021/11/23 02:37:09;;;;;;;;;30.25;26.00;;;;;5.61;59.66;102701.19;5048131;28;45469;-85
2021/11/23 02:39:35;;;;;;;;;24.50;23.00;;;;;5.60;59.75;102694.25;5058786;28;45225;-85
2021/11/23 02:42:00;;;;;;;;;30.50;23.25;;;;;5.58;59.71;102689.84;5060228;28;45590;-85
2021/11/23 02:44:25;;;;;;;;;30.25;23.75;;;;;5.58;59.42;102688.09;5047351;28;45247;-84
2021/11/23 02:46:51;;;;;;;;;30.75;24.00;;;;;5.55;59.82;102682.84;5059623;28;45280;-84
2021/11/23 02:49:21;;;;;;;;;33.25;28.50;;;;;5.55;60.01;102677.63;5060085;28;45438;-86
2021/11/23 02:51:46;;;;;;;;;33.50;26.75;;;;;5.53;59.79;102679.31;5046523;28;45428;-85
2021/11/23 02:54:11;;;;;;;;;26.00;24.00;;;;;5.55;59.92;102684.56;5059884;28;46458;-85
2021/11/23 02:56:37;;;;;;;;;29.00;24.25;;;;;5.57;59.38;102681.13;5043784;28;45561;-84
2021/11/23 02:59:02;;;;;;;;;23.25;22.00;;;;;5.55;60.02;102675.00;5049617;28;45266;-84
2021/11/23 03:01:28;;;;;;;;;24.00;18.25;;;;;5.56;59.86;102674.13;5059832;28;45437;-80
2021/11/23 03:03:55;;;;;;;;;26.75;23.50;;;;;5.57;59.62;102678.53;5059697;28;45408;-81
2021/11/23 03:06:21;;;;;;;;;26.25;25.00;;;;;5.58;59.77;102677.66;5047552;28;45270;-80
2021/11/23 03:08:48;;;;;;;;;29.75;24.50;;;;;5.62;59.70;102679.50;5045062;28;45216;-80
2021/11/23 03:11:15;;;;;;;;;25.50;23.50;;;;;5.63;59.66;102678.63;5059889;28;45706;-80
2021/11/23 03:13:41;;;;;;;;;27.50;25.00;;;;;5.65;59.50;102678.66;5058688;28;46243;-82
2021/11/23 03:16:06;;;;;;;;;32.50;26.75;;;;;5.65;59.41;102676.06;5058850;28;45310;-82
2021/11/23 03:18:31;;;;;;;;;23.00;21.00;;;;;5.64;59.39;102679.50;5057343;28;46584;-81
2021/11/23 03:20:57;;;;;;;;;25.50;23.25;;;;;5.60;59.19;102668.16;5047699;28;45437;-81
2021/11/23 03:23:23;;;;;;;;;21.00;21.00;;;;;5.63;59.02;102669.91;5059368;28;45334;-81
2021/11/23 03:25:48;;;;;;;;;26.75;24.00;;;;;5.64;59.14;102671.69;5052907;28;45520;-87
2021/11/23 03:28:14;;;;;;;;;26.00;23.00;;;;;5.67;59.64;102679.56;5053242;28;45474;-87
2021/11/23 03:30:40;;;;;;;;;28.25;23.75;;;;;5.71;58.97;102673.56;5067617;28;47161;-86
2021/11/23 03:33:07;;;;;;;;;25.00;23.00;;;;;5.69;59.49;102663.94;5053178;28;45208;-85
2021/11/23 03:35:36;;;;;;;;;30.00;24.00;;;;;5.69;58.76;102664.81;5053265;28;45266;-82
2021/11/23 03:38:03;;;;;;;;;28.00;23.25;;;;;5.70;58.88;102670.94;5043933;28;45473;-81
2021/11/23 03:40:30;;;;;;;;;29.75;22.75;;;;;5.74;59.09;102664.91;5054371;28;45255;-81
2021/11/23 03:42:56;;;;;;;;;25.75;22.00;;;;;5.71;58.78;102664.84;5059408;28;46431;-82
2021/11/23 03:45:22;;;;;;;;;27.00;20.25;;;;;5.71;58.83;102657.00;5059364;28;45349;-82
2021/11/23 03:47:48;;;;;;;;;28.50;21.75;;;;;5.72;58.58;102669.22;5059601;28;45498;-84
2021/11/23 03:50:15;;;;;;;;;27.00;25.25;;;;;5.71;59.04;102668.34;5051905;28;45394;-83
2021/11/23 03:52:40;;;;;;;;;23.75;23.25;;;;;5.67;58.02;102660.44;5053335;28;45590;-84
2021/11/23 03:55:09;;;;;;;;;27.00;21.50;;;;;5.61;58.40;102658.56;5047404;28;45351;-85
2021/11/23 03:57:35;;;;;;;;;24.75;21.25;;;;;5.64;58.55;102666.47;5059396;28;45318;-90
2021/11/23 04:00:00;;;;;;;;;24.00;20.50;;;;;5.65;58.82;102656.91;5059622;28;45195;-90
2021/11/23 04:02:26;;;;;;;;;23.00;18.50;;;;;5.70;58.80;102665.72;5045018;28;45256;-85
2021/11/23 04:04:53;;;;;;;;;20.50;18.75;;;;;5.69;58.83;102653.50;5054527;28;46030;-84
2021/11/23 04:07:19;;;;;;;;;23.25;22.50;;;;;5.72;58.89;102664.00;5048097;28;45209;-87
2021/11/23 04:09:44;;;;;;;;;28.75;23.25;;;;;5.70;58.54;102655.28;5058955;28;45453;-87
2021/11/23 04:12:11;;;;;;;;;26.00;19.75;;;;;5.72;58.58;102664.00;5059070;28;46069;-87
2021/11/23 04:14:37;;;;;;;;;29.25;23.00;;;;;5.70;58.58;102663.09;5046356;28;45338;-85
2021/11/23 04:17:03;;;;;;;;;27.00;23.75;;;;;5.69;58.38;102663.94;5058205;28;45484;-81
2021/11/23 04:19:29;;;;;;;;;24.00;18.75;;;;;5.70;58.45;102665.72;5058862;28;45399;-81
2021/11/23 04:21:58;;;;;;;;;21.50;21.25;;;;;5.70;58.31;102663.97;5058671;28;45337;-81
2021/11/23 04:24:24;;;;;;;;;26.75;22.00;;;;;5.67;58.06;102660.44;5059117;28;45464;-83
2021/11/23 04:26:50;;;;;;;;;23.50;19.00;;;;;5.65;58.05;102669.97;5049319;28;45405;-84
2021/11/23 04:29:16;;;;;;;;;24.75;23.00;;;;;5.61;58.02;102664.69;5062475;28;46270;-84
2021/11/23 04:31:42;;;;;;;;;24.00;19.75;;;;;5.58;57.98;102662.00;5059863;28;45961;-88
2021/11/23 04:34:07;;;;;;;;;23.25;21.25;;;;;5.57;57.88;102661.97;5062257;28;45416;-88
2021/11/23 04:36:33;;;;;;;;;25.00;24.00;;;;;5.57;57.94;102670.69;5059415;28;46050;-86
2021/11/23 04:38:58;;;;;;;;;24.75;22.75;;;;;5.55;58.12;102664.56;5063942;28;46001;-84
2021/11/23 04:41:24;;;;;;;;;23.75;23.00;;;;;5.55;58.09;102661.97;5061694;28;46181;-82
2021/11/23 04:43:49;;;;;;;;;20.75;18.25;;;;;5.55;57.96;102659.34;5062206;28;45358;-81
2021/11/23 04:46:15;;;;;;;;;28.25;26.25;;;;;5.56;57.91;102666.31;5062097;28;45457;-80
2021/11/23 04:48:40;;;;;;;;;25.75;21.75;;;;;5.57;58.02;102675.03;5061980;28;45297;-81
2021/11/23 04:51:06;;;;;;;;;26.75;25.00;;;;;5.57;58.12;102675.03;5048460;28;45734;-81
2021/11/23 04:53:31;;;;;;;;;24.50;22.50;;;;;5.60;57.76;102672.47;5061931;28;45124;-83
2021/11/23 04:55:57;;;;;;;;;26.75;22.25;;;;;5.57;58.20;102673.31;5061952;28;45280;-83
2021/11/23 04:58:22;;;;;;;;;31.00;23.00;;;;;5.56;57.80;102683.69;5062214;28;45433;-84
2021/11/23 05:00:47;;;;;;;;;21.50;18.75;;;;;5.52;58.24;102680.16;5060151;28;45284;-83
2021/11/23 05:03:13;;;;;;;;;26.50;22.00;;;;;5.49;57.60;102674.88;5048473;28;45203;-83
2021/11/23 05:05:38;;;;;;;;;25.75;22.25;;;;;5.51;58.04;102675.78;5051568;28;45160;-82
2021/11/23 05:08:04;;;;;;;;;21.50;16.50;;;;;5.51;58.45;102684.47;5058794;28;45477;-81
2021/11/23 05:10:29;;;;;;;;;24.00;21.75;;;;;5.54;58.16;102675.84;5061473;28;46242;-80
2021/11/23 05:12:55;;;;;;;;;24.25;19.50;;;;;5.55;57.84;102676.72;5061638;28;45432;-80
2021/11/23 05:15:20;;;;;;;;;28.25;22.75;;;;;5.50;57.48;102674.03;5048331;28;45310;-82
2021/11/23 05:17:46;;;;;;;;;27.50;22.00;;;;;5.49;57.27;102673.16;5061770;28;45518;-82
2021/11/23 05:20:12;;;;;;;;;24.75;21.75;;;;;5.45;57.77;102671.34;5061261;28;46430;-83
2021/11/23 05:22:38;;;;;;;;;27.50;24.50;;;;;5.45;57.66;102675.66;5050650;28;45391;-82
2021/11/23 05:25:05;;;;;;;;;23.00;17.75;;;;;5.39;57.77;102672.09;5055028;28;45522;-82
2021/11/23 05:27:31;;;;;;;;;26.25;22.00;;;;;5.36;57.88;102674.63;5060196;28;46079;-82
2021/11/23 05:29:57;;;;;;;;;24.50;23.75;;;;;5.36;58.12;102677.22;5059401;28;45382;-83
2021/11/23 05:32:22;;;;;;;;;25.00;24.25;;;;;5.33;57.02;102685.00;5060611;28;45149;-85
2021/11/23 05:34:48;;;;;;;;;18.50;18.50;;;;;5.33;57.92;102687.63;5058047;28;45224;-83
2021/11/23 05:37:13;;;;;;;;;24.00;21.00;;;;;5.31;57.98;102683.22;5050538;28;45572;-82
2021/11/23 05:39:38;;;;;;;;;25.50;21.00;;;;;5.30;57.57;102687.53;5061237;28;46347;-86
2021/11/23 05:42:04;;;;;;;;;28.50;28.25;;;;;5.28;57.86;102684.03;5052420;28;45435;-90
2021/11/23 05:44:29;;;;;;;;;29.25;24.25;;;;;5.27;58.15;102693.56;5051656;28;45255;-88
2021/11/23 05:46:55;;;;;;;;;13.75;13.75;;;;;5.28;57.73;102689.25;5058309;28;46097;-87
2021/11/23 05:49:21;;;;;;;;;23.75;20.00;;;;;5.24;57.57;102685.69;5076497;28;46036;-88
2021/11/23 05:51:46;;;;;;;;;22.50;20.75;;;;;5.22;58.03;102689.09;5060785;28;45328;-87
2021/11/23 05:54:13;;;;;;;;;24.75;21.00;;;;;5.18;57.98;102689.03;5058754;28;45424;-87
2021/11/23 05:56:38;;;;;;;;;22.25;21.25;;;;;5.17;58.04;102684.69;5045680;28;45575;-88
2021/11/23 05:59:04;;;;;;;;;22.50;20.00;;;;;5.21;57.81;102695.19;5047550;28;47263;-89
2021/11/23 06:01:29;;;;;;;;;27.50;23.75;;;;;5.18;57.94;102696.00;5059625;28;45785;-87
2021/11/23 06:03:54;;;;;;;;;27.25;21.75;;;;;5.17;57.92;102696.81;5051995;28;45324;-86
2021/11/23 06:06:20;;;;;;;;;23.50;20.50;;;;;5.14;57.93;102700.25;5060750;28;45572;-86
2021/11/23 06:08:45;;;;;;;;;28.75;21.75;;;;;5.11;58.08;102700.16;5050056;28;47392;-86
2021/11/23 06:11:11;;;;;;;;;24.75;20.00;;;;;5.14;58.05;102712.41;5061027;28;45183;-86
2021/11/23 06:13:37;;;;;;;;;24.25;20.25;;;;;5.12;58.49;102698.44;5059824;28;45974;-86
2021/11/23 06:16:03;;;;;;;;;27.00;22.50;;;;;5.13;58.09;102706.31;5060829;28;45327;-86
2021/11/23 06:18:28;;;;;;;;;27.75;23.75;;;;;5.12;57.76;102706.28;5060394;28;46468;-86
2021/11/23 06:20:55;;;;;;;;;30.50;24.75;;;;;5.14;57.84;102701.97;5060310;28;45861;-87
2021/11/23 06:23:22;;;;;;;;;25.75;21.75;;;;;5.12;57.74;102704.56;5057695;28;45393;-87
2021/11/23 06:25:51;;;;;;;;;26.75;23.50;;;;;5.12;57.98;102694.13;5044145;28;46098;-87
2021/11/23 06:28:18;;;;;;;;;16.50;14.75;;;;;5.06;57.96;102699.22;5052377;28;45402;-84
2021/11/23 06:30:44;;;;;;;;;29.00;23.75;;;;;5.02;57.58;102702.59;5057351;28;45520;-84
2021/11/23 06:33:10;;;;;;;;;26.00;21.75;;;;;5.02;58.03;102710.41;5060710;28;45441;-84
2021/11/23 06:35:37;;;;;;;;;22.00;17.00;;;;;5.04;58.22;102704.38;5060267;28;45370;-84
2021/11/23 06:38:04;;;;;;;;;19.50;18.00;;;;;5.08;58.38;102707.94;5060407;28;46396;-84
2021/11/23 06:40:29;;;;;;;;;27.75;24.00;;;;;5.12;57.82;102708.88;5060429;28;45366;-84
2021/11/23 06:42:55;;;;;;;;;24.25;20.25;;;;;5.13;57.94;102711.53;5055896;28;45963;-84
2021/11/23 06:45:20;;;;;;;;;25.50;21.75;;;;;5.15;57.42;102715.06;5050933;28;45444;-84
2021/11/23 06:47:46;;;;;;;;;25.75;22.25;;;;;5.17;57.76;102715.06;5057653;28;45205;-84
2021/11/23 06:50:13;;;;;;;;;23.50;21.75;;;;;5.20;57.10;102714.25;5055749;28;45211;-82
2021/11/23 06:52:39;;;;;;;;;40.00;34.25;;;;;5.20;57.65;102722.09;5056335;28;46913;-85
2021/11/23 06:55:05;;;;;;;;;30.00;25.75;;;;;5.20;57.62;102727.31;5058673;28;46240;-87
2021/11/23 06:57:30;;;;;;;;;31.25;23.25;;;;;5.23;57.66;102725.66;5047980;28;46350;-84
2021/11/23 06:59:56;;;;;;;;;21.50;19.00;;;;;5.25;57.42;102734.38;5052676;28;45416;-83
2021/11/23 07:02:21;;;;;;;;;37.00;33.00;;;;;5.24;57.32;102734.34;5059949;28;45397;-83
2021/11/23 07:04:46;;;;;;;;;30.00;28.00;;;;;5.25;57.43;102736.09;5046667;28;45543;-83
2021/11/23 07:07:12;;;;;;;;;22.00;18.00;;;;;5.27;57.41;102739.63;5058628;28;48364;-87
2021/11/23 07:09:37;;;;;;;;;21.50;18.50;;;;;5.29;56.93;102745.75;5059125;28;45491;-83
2021/11/23 07:12:04;;;;;;;;;24.00;20.25;;;;;5.28;57.26;102734.44;5051323;28;45414;-82
2021/11/23 07:14:30;;;;;;;;;18.00;18.00;;;;;5.27;57.42;102734.41;5057792;28;45251;-83
2021/11/23 07:16:56;;;;;;;;;21.50;19.50;;;;;5.27;56.92;102731.81;5055198;28;45715;-82
2021/11/23 07:19:21;;;;;;;;;21.75;17.00;;;;;5.26;57.26;102737.88;5050299;28;45430;-84
2021/11/23 07:21:47;;;;;;;;;18.50;15.50;;;;;5.27;57.21;102740.50;5057325;28;45797;-84
2021/11/23 07:24:13;;;;;;;;;20.00;16.00;;;;;5.25;56.23;102746.53;5053775;28;45594;-84
2021/11/23 07:26:39;;;;;;;;;18.00;16.00;;;;;5.24;56.48;102748.25;5058749;28;45971;-85
2021/11/23 07:29:05;;;;;;;;;16.75;15.75;;;;;5.25;57.07;102743.94;5070393;28;46202;-83
2021/11/23 07:31:31;;;;;;;;;20.75;17.00;;;;;5.24;56.57;102761.28;5041773;28;45304;-83
2021/11/23 07:33:58;;;;;;;;;20.00;15.50;;;;;5.24;56.87;102757.81;5042719;28;45635;-84
2021/11/23 07:36:25;;;;;;;;;10.25;10.25;;;;;5.23;56.77;102754.34;5040066;28;46055;-84
2021/11/23 07:38:54;;;;;;;;;22.50;19.75;;;;;5.26;56.73;102763.97;5059478;28;45761;-84
2021/11/23 07:41:20;;;;;;;;;16.50;14.25;;;;;5.26;56.81;102772.63;5057528;28;45125;-84
2021/11/23 07:43:46;;;;;;;;;16.25;15.25;;;;;5.26;56.39;102770.03;5043718;28;45438;-83
2021/11/23 07:46:11;;;;;;;;;18.50;15.50;;;;;5.22;56.43;102770.81;5059412;28;45581;-83
2021/11/23 07:48:37;;;;;;;;;14.75;11.25;;;;;5.22;55.93;102783.84;5058252;28;45422;-83
2021/11/23 07:51:04;;;;;;;;;16.50;14.50;;;;;5.22;56.56;102788.19;5058829;28;45319;-83
2021/11/23 07:53:29;;;;;;;;;18.25;16.00;;;;;5.22;56.54;102786.47;5059096;28;45441;-83
2021/11/23 07:55:55;;;;;;;;;19.75;16.75;;;;;5.21;56.28;102789.03;5057123;28;45465;-83
2021/11/23 07:58:21;;;;;;;;;18.25;15.00;;;;;5.25;56.05;102796.09;5059244;28;45188;-84
2021/11/23 08:00:46;;;;;;;;;18.00;16.00;;;;;5.27;56.57;102800.50;5048475;28;45221;-83
2021/11/23 08:03:11;;;;;;;;;16.00;14.25;;;;;5.25;56.22;102793.47;5055488;28;45441;-83
2021/11/23 08:05:41;;;;;;;;;19.50;15.00;;;;;5.25;56.04;102789.16;5051285;28;45385;-84
2021/11/23 08:08:08;;;;;;;;;18.25;16.50;;;;;5.29;55.76;102800.50;5067832;28;45432;-84
2021/11/23 08:10:34;;;;;;;;;22.00;15.25;;;;;5.29;55.86;102790.06;5057552;28;45616;-84
2021/11/23 08:13:00;;;;;;;;;17.50;15.00;;;;;5.31;56.36;102797.97;5055553;28;45428;-83
2021/11/23 08:15:27;;;;;;;;;16.00;15.50;;;;;5.34;55.83;102801.50;5053754;28;45302;-83
2021/11/23 08:17:52;;;;;;;;;16.25;13.50;;;;;5.34;55.67;102798.88;5057053;28;45268;-83
2021/11/23 08:20:18;;;;;;;;;14.75;11.50;;;;;5.30;54.93;102797.06;5049409;28;45431;-83
2021/11/23 08:22:45;;;;;;;;;14.25;10.75;;;;;5.27;55.83;102803.09;5061082;28;46102;-84
2021/11/23 08:25:12;;;;;;;;;19.25;15.00;;;;;5.30;55.80;102802.28;5048937;28;46453;-83
2021/11/23 08:27:38;;;;;;;;;12.50;12.50;;;;;5.34;55.56;102811.03;5058812;28;45880;-83
2021/11/23 08:30:06;;;;;;;;;16.00;14.75;;;;;5.40;54.95;102809.47;5054498;28;45350;-84
2021/11/23 08:32:31;;;;;;;;;14.50;12.50;;;;;5.39;54.62;102812.91;5046643;28;45211;-83
2021/11/23 08:34:57;;;;;;;;;18.25;15.00;;;;;5.45;55.21;102817.41;5061522;28;45338;-85
2021/11/23 08:37:26;;;;;;;;;16.25;16.25;;;;;5.49;54.99;102813.13;5060358;28;45153;-84
2021/11/23 08:39:51;;;;;;;;;14.00;13.00;;;;;5.53;54.89;102804.53;5048913;28;45352;-83
2021/11/23 08:42:20;;;;;;;;;11.75;9.75;;;;;5.58;53.98;102795.03;5049346;28;45389;-86
2021/11/23 08:44:45;;;;;;;;;11.50;10.75;;;;;5.61;54.54;102797.72;5047077;28;46439;-88
2021/11/23 08:47:11;;;;;;;;;10.75;8.75;;;;;5.62;54.63;102799.50;5055570;28;45272;-87
2021/11/23 08:49:36;;;;;;;;;9.50;9.50;;;;;5.67;53.15;102794.38;5050478;28;45285;-83
2021/11/23 08:52:02;;;;;;;;;7.00;7.00;;;;;5.68;52.26;102800.50;5050337;28;45484;-84
2021/11/23 08:54:28;;;;;;;;;11.00;8.00;;;;;5.75;53.78;102802.38;5050108;28;45458;-83
2021/11/23 08:57:04;;;;;;;;;8.75;7.00;;;;;5.77;53.71;102802.41;5062279;28;45244;-83
2021/11/23 08:59:32;;;;;;;;;10.50;8.00;;;;;5.82;53.48;102801.66;5050900;28;45505;-83
2021/11/23 09:01:58;;;;;;;;;13.25;8.75;;;;;5.88;53.63;102807.84;5053069;28;45634;-83
2021/11/23 09:04:23;;;;;;;;;5.00;4.00;;;;;5.92;52.80;102810.56;5052859;28;48516;-84
2021/11/23 09:06:48;;;;;;;;;5.00;5.00;;;;;5.96;53.04;102803.66;5052114;28;46001;-84
2021/11/23 09:09:14;;;;;;;;;7.75;5.25;;;;;5.99;52.04;102813.28;5060483;28;45295;-83
2021/11/23 09:11:40;;;;;;;;;3.50;3.50;;;;;6.03;52.40;102809.84;5055504;28;45526;-83
2021/11/23 09:14:08;;;;;;;;;5.25;5.00;;;;;6.03;51.66;102804.63;5057919;28;46355;-84
2021/11/23 09:16:35;;;;;;;;;6.75;5.00;;;;;6.07;51.62;102812.59;5056090;28;45500;-84
2021/11/23 09:19:00;;;;;;;;;6.25;6.25;;;;;6.11;51.79;102815.28;5061710;28;45387;-84
2021/11/23 09:21:27;;;;;;;;;8.50;5.00;;;;;6.16;52.00;102816.25;5061546;28;45425;-84
2021/11/23 09:23:53;;;;;;;;;5.00;5.00;;;;;6.24;52.23;102825.13;5060404;28;46612;-84
2021/11/23 09:26:19;;;;;;;;;6.25;5.00;;;;;6.27;51.72;102819.94;5047994;28;45419;-83
2021/11/23 09:28:44;;;;;;;;;5.25;5.25;;;;;6.32;52.02;102824.38;5061846;28;45389;-83
2021/11/23 09:31:10;;;;;;;;;5.00;4.00;;;;;6.38;51.90;102827.09;5055520;28;45441;-84
2021/11/23 09:33:35;;;;;;;;;5.00;4.25;;;;;6.42;51.01;102818.44;5061134;28;46729;-83
2021/11/23 09:36:01;;;;;;;;;4.75;4.75;;;;;6.47;51.62;102822.03;5056801;28;45229;-83
2021/11/23 09:38:26;;;;;;;;;6.00;4.50;;;;;6.53;51.25;102822.16;5057659;28;45159;-83
2021/11/23 09:40:51;;;;;;;;;9.00;4.75;;;;;6.62;51.96;102808.34;5054185;28;45485;-88
2021/11/23 09:43:17;;;;;;;;;6.00;3.25;;;;;6.73;51.58;102819.00;5061124;28;46213;-84
2021/11/23 09:45:42;;;;;;;;;6.50;3.50;;;;;6.80;50.32;102819.97;5047164;28;45189;-84
2021/11/23 09:48:10;;;;;;;;;4.00;4.00;;;;;6.82;48.89;102820.00;5047124;28;45930;-84
2021/11/23 09:50:41;;;;;;;;;5.00;4.50;;;;;6.88;49.81;102814.88;5054648;28;45404;-84
2021/11/23 09:53:08;;;;;;;;;6.50;5.00;;;;;6.90;50.01;102815.78;5044561;28;45399;-84
2021/11/23 09:55:35;;;;;;;;;6.00;4.75;;;;;6.95;50.50;102808.00;5054446;28;45295;-84
2021/11/23 09:58:00;;;;;;;;;6.00;3.50;;;;;7.01;48.54;102820.31;5055696;28;45377;-84
2021/11/23 10:00:34;;;;;;;;;2.25;2.25;;;;;7.04;49.48;102825.56;5047371;28;45478;-84
2021/11/23 10:03:10;;;;;;;;;2.00;2.00;;;;;7.09;50.10;102827.41;5048427;28;46199;-84
2021/11/23 10:05:39;;;;;;;;;5.00;3.00;;;;;7.11;48.09;102814.38;5061111;28;45465;-84
2021/11/23 10:08:16;;;;;;;;;4.00;4.00;;;;;7.15;49.08;102807.44;5052249;28;45374;-84
2021/11/23 10:10:51;;;;;;;;;4.50;3.00;;;;;7.20;48.46;102814.50;5059041;28;47244;-84
2021/11/23 10:13:20;;;;;;;;;2.25;2.00;;;;;7.25;49.49;102806.72;5048107;28;46426;-84
2021/11/23 10:15:48;;;;;;;;;6.25;3.00;;;;;7.27;47.21;102805.00;5059443;28;45379;-83
2021/11/23 10:18:20;;;;;;;;;3.50;3.25;;;;;7.31;49.13;102805.91;5050249;28;45484;-84
2021/11/23 10:20:49;;;;;;;;;3.50;3.50;;;;;7.34;49.01;102795.50;5052233;28;45430;-84
2021/11/23 10:23:28;;;;;;;;;6.25;4.00;;;;;7.42;48.57;102801.72;5058291;28;45433;-82
2021/11/23 10:26:19;;;;;;;;;4.00;3.00;;;;;7.45;48.23;102802.63;5049864;28;46461;-82
2021/11/23 10:28:55;;;;;;;;;3.00;3.00;;;;;7.46;48.67;102789.56;5054279;28;45739;-84
2021/11/23 10:31:23;;;;;;;;;8.50;3.25;;;;;7.50;48.83;102788.75;5051119;28;46133;-83
2021/11/23 10:34:05;;;;;;;;;5.00;4.00;;;;;7.52;48.12;102783.53;5053600;28;46440;-83
2021/11/23 10:36:36;;;;;;;;;3.50;3.50;;;;;7.56;47.34;102776.59;5048525;28;45299;-83
2021/11/23 10:39:09;;;;;;;;;3.75;1.75;;;;;7.59;48.35;102782.75;5055275;28;45449;-83
2021/11/23 10:41:36;;;;;;;;;3.75;2.00;;;;;7.62;47.63;102780.19;5065854;28;46326;-82
2021/11/23 10:44:03;;;;;;;;;3.50;2.50;;;;;7.62;47.68;102774.94;5053617;28;45511;-82
2021/11/23 10:46:31;;;;;;;;;3.00;3.00;;;;;7.66;47.79;102773.22;5052379;28;45429;-83
2021/11/23 10:48:59;;;;;;;;;3.50;2.75;;;;;7.72;47.88;102773.31;5056947;28;45279;-81
2021/11/23 10:51:26;;;;;;;;;3.00;2.00;;;;;7.74;47.77;102768.09;5059234;28;45714;-81
2021/11/23 10:54:11;;;;;;;;;3.00;2.00;;;;;7.77;46.55;102773.38;5065467;28;47110;-82
2021/11/23 10:57:08;;;;;;;;;3.00;1.00;;;;;7.81;44.20;102780.38;5057734;28;45753;-81
2021/11/23 10:59:34;;;;;;;;;3.00;2.50;;;;;7.86;47.81;102778.72;5069348;28;45338;-82
2021/11/23 11:02:01;;;;;;;;;3.00;2.00;;;;;7.92;46.31;102774.41;5067982;28;46285;-82
2021/11/23 11:04:28;;;;;;;;;3.00;3.00;;;;;7.94;47.27;102770.06;5057221;28;47941;-86
2021/11/23 11:06:56;;;;;;;;;4.00;4.00;;;;;7.99;47.38;102765.75;5045391;28;45424;-86
2021/11/23 11:09:23;;;;;;;;;3.00;2.25;;;;;8.04;47.73;102771.91;5053328;28;45264;-85
2021/11/23 11:11:49;;;;;;;;;4.00;1.00;;;;;8.09;47.79;102765.00;5038933;28;46509;-88
2021/11/23 11:14:15;;;;;;;;;1.00;1.00;;;;;8.13;47.35;102755.41;5058828;28;45478;-88
2021/11/23 11:16:41;;;;;;;;;2.00;2.00;;;;;8.18;47.79;102760.69;5059786;28;45177;-88
2021/11/23 11:19:12;;;;;;;;;4.00;4.00;;;;;8.27;47.52;102760.78;5059138;28;45254;-88